KSPS/SPS METAR and TAF weather

Enter ICAO airport designator
Station Type Date Time Source
KSPS METAR 2019/04/24 15:59 UTC NOAA

KSPS 241559Z 02010KT 5SM BR BKN006 OVC011 14/14 A2993 RMK AO2 DZE55 CIG 004V008 P0000 T01440139


Station Type Date Time Source
KSPS Decoded METAR 2019/04/24 15:59 UTC NOAA

WICHITA FALLS SHEPPARD AFB, TX, United States (KSPS) 33-59N 98-30W 308M
Apr 24, 2019 - 11:59 AM EDT / 2019.04.24 1559 UTC
Wind: from the NNE (020 degrees) at 12 MPH (10 KT):0
Visibility: 5 mile(s):0
Sky conditions: overcast
Weather: mist
Precipitation last hour: A trace
Temperature: 57.9 F (14.4 C)
Dew Point: 57.0 F (13.9 C)
Relative Humidity: 96%
Pressure (altimeter): 29.93 in. Hg (1013 hPa)
ob: KSPS 241559Z 02010KT 5SM BR BKN006 OVC011 14/14 A2993 RMK AO2 DZE55 CIG 004V008 P0000 T01440139
cycle: 16

Station Type Date Time Source
KSPS TAF 2019/04/24 12:33 UTC NOAA

TAF KSPS 241131Z 2412/2512 34007KT P6SM OVC008
TEMPO 2412/2415 5SM BR OVC005
FM241600 36007KT P6SM BKN015 BKN250
FM242100 03006KT P6SM BKN040 BKN250 PROB30 2421/2501 5SM SHRA BKN030
FM250100 23005KT 6SM BR BKN250

Example: see airport list